Seacod — DDPW — position and weather

sailwx.info

Track history (hours):
 
Tides and Currents Weather Stations Pressure Air Temp Water Temp Dewpoint Dewpoint Depression Visibility Wind Speed Wind Dir Waves Ship Positions

Seacod

Last reported at 2015-Jan-27 12:21 UTC. Time now 2015-Jan-31 21:09 UTC.
Position N 50°15' W 001°29'.

Length 188 m; draft 7.2 m.

Type: Ship. MMSI: 218019000.

Date/timePositionNaut miles runAvg speedWind from/ knotsBaromVisibWave heightAir tempDewpointWater temp
2015-Jan-27 12:21N 50°15' W 001°29'2711.7
2015-Jan-27 10:04N 50°23' W 000°49'713.9
2015-Jan-27 09:33N 50°25' W 000°38'1514.2
2015-Jan-27 08:32N 50°29' W 000°16'1514.5
2015-Jan-27 07:30N 50°34' E 000°06'1415.0
2015-Jan-27 06:33N 50°38' E 000°28'1414.5
2015-Jan-27 05:34N 50°45' E 000°48'2013.3
2015-Jan-27 04:04N 50°56' E 001°13'713.1
2015-Jan-27 03:33N 51°01' E 001°21'1414.5
2015-Jan-27 02:34N 51°10' E 001°39'1515.5
2015-Jan-27 01:34N 51°22' E 001°54'1615.7
2015-Jan-27 00:33N 51°34' E 002°11'6512.3
2015-Jan-26 19:17N 52°04' E 003°44'810.8
2015-Jan-26 18:33N 52°03' E 003°57'10 9.5
2015-Jan-26 17:33N 51°57' E 004°09'3 3.1
2015-Jan-26 16:29N 51°55' E 004°13'0 0.0
2015-Jan-26 15:29N 51°55' E 004°13'0 0.0
2015-Jan-26 14:20N 51°55' E 004°13'0 0.0
2015-Jan-26 13:23N 51°55' E 004°13'0 0.0
2015-Jan-26 12:29N 51°55' E 004°13'0 0.0
2015-Jan-26 11:26N 51°55' E 004°13'0 0.0
2015-Jan-26 10:23N 51°55' E 004°13'0 0.0
2015-Jan-26 09:17N 51°55' E 004°13'0 0.0
2015-Jan-26 08:23N 51°55' E 004°13'0 0.0
2015-Jan-26 07:23N 51°55' E 004°13'0 0.0
2015-Jan-26 05:29N 51°55' E 004°13'0 0.0
2015-Jan-26 04:26N 51°55' E 004°13'0 0.0
2015-Jan-26 03:29N 51°55' E 004°13'0 0.0
2015-Jan-26 02:32N 51°55' E 004°13'0 0.0
2015-Jan-26 01:05N 51°55' E 004°13'0 0.0
2015-Jan-26 00:26N 51°55' E 004°13'0 0.0
2015-Jan-25 23:32N 51°55' E 004°13'0 0.0
2015-Jan-25 22:29N 51°55' E 004°13'0 0.0
2015-Jan-25 21:17N 51°55' E 004°13'0 0.0
2015-Jan-25 20:11N 51°55' E 004°13'0 0.0
2015-Jan-25 19:32N 51°55' E 004°13'0 0.0
2015-Jan-25 18:20N 51°55' E 004°13'0 0.0
2015-Jan-25 17:29N 51°55' E 004°13'0 0.0
2015-Jan-25 16:32N 51°55' E 004°13'0 0.0
2015-Jan-25 15:11N 51°55' E 004°13'0 0.0
2015-Jan-25 14:29N 51°55' E 004°13'0 0.0
2015-Jan-25 13:31N 51°55' E 004°13'0 0.0
2015-Jan-25 12:28N 51°55' E 004°13'0 0.0
2015-Jan-25 11:31N 51°55' E 004°13'0 0.0
2015-Jan-25 10:28N 51°55' E 004°13'0 0.0
2015-Jan-25 09:28N 51°55' E 004°13'0 0.0
2015-Jan-25 08:19N 51°55' E 004°13'0 0.0
2015-Jan-25 07:10N 51°55' E 004°13'0 0.0
2015-Jan-25 06:28N 51°55' E 004°13'0 0.0
2015-Jan-25 05:31N 51°55' E 004°13'0 0.0
2015-Jan-25 04:13N 51°55' E 004°13'0 0.0
2015-Jan-25 03:13N 51°55' E 004°13'0 0.0
2015-Jan-25 02:31N 51°55' E 004°13'0 0.4
2015-Jan-25 01:33N 51°55' E 004°13'8 8.0
2015-Jan-25 00:33N 51°60' E 004°02'9 8.8
2015-Jan-24 23:33N 51°60' E 003°47'9 9.0
2015-Jan-24 22:30N 51°57' E 003°33'2311.7
2015-Jan-24 20:30N 51°53' E 002°55'31 9.2
2015-Jan-24 17:11N 52°24' E 002°48'711.1
2015-Jan-24 16:33N 52°30' E 002°53'1211.4
2015-Jan-24 15:29N 52°40' E 003°03'1212.4
2015-Jan-24 14:33N 52°51' E 003°12'19710.1
2015-Jan-23 19:04N 55°29' E 006°32'18311.0
2015-Jan-23 02:32N 57°49' E 010°06'1313.0
2015-Jan-23 01:33N 57°49' E 010°29'1111.0
2015-Jan-23 00:32N 57°46' E 010°50'1212.8
2015-Jan-22 23:33N 57°38' E 011°07'1413.8
2015-Jan-22 22:33N 57°28' E 011°25'1413.7
2015-Jan-22 21:33N 57°15' E 011°35'1313.3
2015-Jan-22 20:33N 57°03' E 011°43'1313.5
2015-Jan-22 19:33N 56°50' E 011°51'1212.4
2015-Jan-22 18:33N 56°38' E 011°46'12312.3
2015-Jan-22 08:33N 54°38' E 010°54'1413.8
2015-Jan-22 07:33N 54°34' E 011°17'1414.1
2015-Jan-22 06:33N 54°29' E 011°39'1413.6
2015-Jan-22 05:33N 54°26' E 012°02'1111.3
2015-Jan-22 04:33N 54°35' E 012°16'1212.0
2015-Jan-22 03:34N 54°42' E 012°32'1312.5
2015-Jan-22 02:32N 54°48' E 012°51'1313.0
2015-Jan-22 01:31N 54°53' E 013°12'2613.2
2015-Jan-21 23:33N 55°03' E 013°55'912.2
2015-Jan-21 22:50N 55°07' E 014°08'112.9
2015-Jan-21 22:46N 55°08' E 014°09'312.9
2015-Jan-21 22:33N 55°10' E 014°12'1413.7
2015-Jan-21 21:33N 55°20' E 014°27'1413.9
2015-Jan-21 20:33N 55°29' E 014°45'1313.2
2015-Jan-21 19:33N 55°36' E 015°06'35512.7
2015-Jan-20 15:32N 59°37' E 023°12'1313.6
2015-Jan-20 14:32N 59°40' E 023°38'2713.5
2015-Jan-20 12:33N 59°47' E 024°29'5613.5
2015-Jan-20 08:24N 59°60' E 026°19'1113.2
2015-Jan-20 07:33N 60°01' E 026°40'1413.1
2015-Jan-20 06:30N 60°01' E 027°08'4 0.1
2015-Jan-18 14:21N 59°58' E 027°02'1012.3
2015-Jan-18 13:33N 59°60' E 026°43'6713.3
2015-Jan-18 08:33N 59°45' E 024°34'  
Track history (hours):
 
Tides and Currents Weather Stations Pressure Air Temp Water Temp Dewpoint Dewpoint Depression Visibility Wind Speed Wind Dir Waves Ship Positions

Seacod

Last reported at 2015-Jan-27 12:21 UTC. Time now 2015-Jan-31 21:10 UTC.
Position N 50°15' W 001°29'.

Length 188 m; draft 7.2 m.

Type: Ship. MMSI: 218019000.

Date/timePositionNaut miles runAvg speedWind from/ knotsBaromVisibWave heightAir tempDewpointWater temp
2015-Jan-27 12:21N 50°15' W 001°29'2711.7
2015-Jan-27 10:04N 50°23' W 000°49'713.9
2015-Jan-27 09:33N 50°25' W 000°38'1514.2
2015-Jan-27 08:32N 50°29' W 000°16'1514.5
2015-Jan-27 07:30N 50°34' E 000°06'1415.0
2015-Jan-27 06:33N 50°38' E 000°28'1414.5
2015-Jan-27 05:34N 50°45' E 000°48'2013.3
2015-Jan-27 04:04N 50°56' E 001°13'713.1
2015-Jan-27 03:33N 51°01' E 001°21'1414.5
2015-Jan-27 02:34N 51°10' E 001°39'1515.5
2015-Jan-27 01:34N 51°22' E 001°54'1615.7
2015-Jan-27 00:33N 51°34' E 002°11'6512.3
2015-Jan-26 19:17N 52°04' E 003°44'810.8
2015-Jan-26 18:33N 52°03' E 003°57'10 9.5
2015-Jan-26 17:33N 51°57' E 004°09'3 3.1
2015-Jan-26 16:29N 51°55' E 004°13'0 0.0
2015-Jan-26 15:29N 51°55' E 004°13'0 0.0
2015-Jan-26 14:20N 51°55' E 004°13'0 0.0
2015-Jan-26 13:23N 51°55' E 004°13'0 0.0
2015-Jan-26 12:29N 51°55' E 004°13'0 0.0
2015-Jan-26 11:26N 51°55' E 004°13'0 0.0
2015-Jan-26 10:23N 51°55' E 004°13'0 0.0
2015-Jan-26 09:17N 51°55' E 004°13'0 0.0
2015-Jan-26 08:23N 51°55' E 004°13'0 0.0
2015-Jan-26 07:23N 51°55' E 004°13'0 0.0
2015-Jan-26 05:29N 51°55' E 004°13'0 0.0
2015-Jan-26 04:26N 51°55' E 004°13'0 0.0
2015-Jan-26 03:29N 51°55' E 004°13'0 0.0
2015-Jan-26 02:32N 51°55' E 004°13'0 0.0
2015-Jan-26 01:05N 51°55' E 004°13'0 0.0
2015-Jan-26 00:26N 51°55' E 004°13'0 0.0
2015-Jan-25 23:32N 51°55' E 004°13'0 0.0
2015-Jan-25 22:29N 51°55' E 004°13'0 0.0
2015-Jan-25 21:17N 51°55' E 004°13'0 0.0
2015-Jan-25 20:11N 51°55' E 004°13'0 0.0
2015-Jan-25 19:32N 51°55' E 004°13'0 0.0
2015-Jan-25 18:20N 51°55' E 004°13'0 0.0
2015-Jan-25 17:29N 51°55' E 004°13'0 0.0
2015-Jan-25 16:32N 51°55' E 004°13'0 0.0
2015-Jan-25 15:11N 51°55' E 004°13'0 0.0
2015-Jan-25 14:29N 51°55' E 004°13'0 0.0
2015-Jan-25 13:31N 51°55' E 004°13'0 0.0
2015-Jan-25 12:28N 51°55' E 004°13'0 0.0
2015-Jan-25 11:31N 51°55' E 004°13'0 0.0
2015-Jan-25 10:28N 51°55' E 004°13'0 0.0
2015-Jan-25 09:28N 51°55' E 004°13'0 0.0
2015-Jan-25 08:19N 51°55' E 004°13'0 0.0
2015-Jan-25 07:10N 51°55' E 004°13'0 0.0
2015-Jan-25 06:28N 51°55' E 004°13'0 0.0
2015-Jan-25 05:31N 51°55' E 004°13'0 0.0
2015-Jan-25 04:13N 51°55' E 004°13'0 0.0
2015-Jan-25 03:13N 51°55' E 004°13'0 0.0
2015-Jan-25 02:31N 51°55' E 004°13'0 0.4
2015-Jan-25 01:33N 51°55' E 004°13'8 8.0
2015-Jan-25 00:33N 51°60' E 004°02'9 8.8
2015-Jan-24 23:33N 51°60' E 003°47'9 9.0
2015-Jan-24 22:30N 51°57' E 003°33'2311.7
2015-Jan-24 20:30N 51°53' E 002°55'31 9.2
2015-Jan-24 17:11N 52°24' E 002°48'711.1
2015-Jan-24 16:33N 52°30' E 002°53'1211.4
2015-Jan-24 15:29N 52°40' E 003°03'1212.4
2015-Jan-24 14:33N 52°51' E 003°12'19710.1
2015-Jan-23 19:04N 55°29' E 006°32'18311.0
2015-Jan-23 02:32N 57°49' E 010°06'1313.0
2015-Jan-23 01:33N 57°49' E 010°29'1111.0
2015-Jan-23 00:32N 57°46' E 010°50'1212.8
2015-Jan-22 23:33N 57°38' E 011°07'1413.8
2015-Jan-22 22:33N 57°28' E 011°25'1413.7
2015-Jan-22 21:33N 57°15' E 011°35'1313.3
2015-Jan-22 20:33N 57°03' E 011°43'1313.5
2015-Jan-22 19:33N 56°50' E 011°51'1212.4
2015-Jan-22 18:33N 56°38' E 011°46'12312.3
2015-Jan-22 08:33N 54°38' E 010°54'1413.8
2015-Jan-22 07:33N 54°34' E 011°17'1414.1
2015-Jan-22 06:33N 54°29' E 011°39'1413.6
2015-Jan-22 05:33N 54°26' E 012°02'1111.3
2015-Jan-22 04:33N 54°35' E 012°16'1212.0
2015-Jan-22 03:34N 54°42' E 012°32'1312.5
2015-Jan-22 02:32N 54°48' E 012°51'1313.0
2015-Jan-22 01:31N 54°53' E 013°12'2613.2
2015-Jan-21 23:33N 55°03' E 013°55'912.2
2015-Jan-21 22:50N 55°07' E 014°08'112.9
2015-Jan-21 22:46N 55°08' E 014°09'312.9
2015-Jan-21 22:33N 55°10' E 014°12'1413.7
2015-Jan-21 21:33N 55°20' E 014°27'1413.9
2015-Jan-21 20:33N 55°29' E 014°45'1313.2
2015-Jan-21 19:33N 55°36' E 015°06'35512.7
2015-Jan-20 15:32N 59°37' E 023°12'1313.6
2015-Jan-20 14:32N 59°40' E 023°38'2713.5
2015-Jan-20 12:33N 59°47' E 024°29'5613.5
2015-Jan-20 08:24N 59°60' E 026°19'1113.2
2015-Jan-20 07:33N 60°01' E 026°40'1413.1
2015-Jan-20 06:30N 60°01' E 027°08'4 0.1
2015-Jan-18 14:21N 59°58' E 027°02'1012.3
2015-Jan-18 13:33N 59°60' E 026°43'6713.3
2015-Jan-18 08:33N 59°45' E 024°34'  

Dump ship's entire track history